createdAt,value
2018-07-10T00:01:05.027Z,13.00
2018-07-10T00:03:56.510Z,13.00
2018-07-10T00:06:35.967Z,13.10
2018-07-10T00:09:18.599Z,13.10
2018-07-10T00:11:47.179Z,13.10
2018-07-10T00:14:15.787Z,13.20
2018-07-10T00:19:12.588Z,13.20
2018-07-10T00:21:41.171Z,13.20
2018-07-10T00:24:09.699Z,13.30
2018-07-10T00:26:38.271Z,13.30
2018-07-10T00:29:06.800Z,13.30
2018-07-10T00:31:35.410Z,13.40
2018-07-10T00:34:04.004Z,13.50
2018-07-10T00:36:32.606Z,13.50
2018-07-10T00:39:05.887Z,13.50
2018-07-10T00:41:36.490Z,13.50
2018-07-10T00:44:05.773Z,13.50
2018-07-10T00:46:36.779Z,13.50
2018-07-10T00:49:05.471Z,13.40
2018-07-10T00:51:36.946Z,13.40
2018-07-10T00:54:05.554Z,13.50
2018-07-10T00:56:34.167Z,13.50
2018-07-10T00:59:04.103Z,13.50
2018-07-10T01:01:33.216Z,13.40
2018-07-10T01:04:01.834Z,13.20
2018-07-10T01:06:30.452Z,13.00
2018-07-10T01:08:58.975Z,12.90
2018-07-10T01:11:27.586Z,12.80
2018-07-10T01:13:56.183Z,12.80
2018-07-10T01:16:33.270Z,12.80
2018-07-10T01:19:03.231Z,12.80
2018-07-10T01:21:31.847Z,12.80
2018-07-10T01:24:02.375Z,12.80
2018-07-10T01:29:06.474Z,12.90
2018-07-10T01:31:35.068Z,12.90
2018-07-10T01:34:03.785Z,12.90
2018-07-10T01:36:32.429Z,12.90
2018-07-10T01:39:01.022Z,12.90
2018-07-10T01:41:29.648Z,12.90
2018-07-10T01:43:58.259Z,12.90
2018-07-10T01:46:26.780Z,12.80
2018-07-10T01:48:55.407Z,12.80
2018-07-10T01:51:23.945Z,12.80
2018-07-10T01:53:52.451Z,12.80
2018-07-10T01:58:49.333Z,12.80
2018-07-10T02:01:17.941Z,12.80
2018-07-10T02:03:46.491Z,12.90
2018-07-10T02:06:15.071Z,12.90
2018-07-10T02:08:43.631Z,12.90
2018-07-10T02:11:12.263Z,12.90
2018-07-10T02:13:40.871Z,12.90
2018-07-10T02:16:09.477Z,13.00
2018-07-10T02:18:38.059Z,13.00
2018-07-10T02:21:08.287Z,13.00
2018-07-10T02:23:42.466Z,13.00
2018-07-10T02:26:20.486Z,13.00
2018-07-10T02:28:49.939Z,13.10
2018-07-10T02:31:18.563Z,13.10
2018-07-10T02:33:47.481Z,13.20
2018-07-10T02:36:16.125Z,13.20
2018-07-10T02:38:47.216Z,13.20
2018-07-10T02:41:18.239Z,13.20
2018-07-10T02:43:55.338Z,13.30
2018-07-10T02:46:23.956Z,13.40
2018-07-10T02:48:54.423Z,13.40
2018-07-10T02:51:23.041Z,13.30
2018-07-10T02:53:51.638Z,13.30
2018-07-10T02:58:48.432Z,13.20
2018-07-10T03:01:17.045Z,13.20
2018-07-10T03:03:45.643Z,13.20
2018-07-10T03:06:14.240Z,13.10
2018-07-10T03:08:43.100Z,13.20
2018-07-10T03:11:13.136Z,13.20
2018-07-10T03:13:42.256Z,13.30
2018-07-10T03:16:10.948Z,13.30
2018-07-10T03:18:40.047Z,13.40
2018-07-10T03:23:36.844Z,13.50
2018-07-10T03:26:05.411Z,13.50
2018-07-10T03:28:34.016Z,13.60
2018-07-10T03:31:02.728Z,13.70
2018-07-10T03:33:31.344Z,13.70
2018-07-10T03:36:00.100Z,13.80
2018-07-10T03:38:29.055Z,13.80
2018-07-10T03:40:57.741Z,13.80
2018-07-10T03:43:27.092Z,13.80
2018-07-10T03:45:56.350Z,13.90
2018-07-10T03:48:25.386Z,13.90
2018-07-10T03:50:54.679Z,14.00
2018-07-10T03:53:24.471Z,14.00
2018-07-10T03:55:53.051Z,14.00
2018-07-10T03:58:21.614Z,14.00
2018-07-10T04:00:50.288Z,14.00
2018-07-10T04:03:22.175Z,14.00
2018-07-10T04:05:51.446Z,14.10
2018-07-10T04:08:20.067Z,14.10
2018-07-10T04:10:48.731Z,14.10
2018-07-10T04:13:21.247Z,14.20
2018-07-10T04:15:53.116Z,14.20
2018-07-10T04:18:25.063Z,14.20
2018-07-10T04:21:27.716Z,14.10
2018-07-10T04:24:10.916Z,14.10
2018-07-10T04:26:42.750Z,14.00
2018-07-10T04:29:15.245Z,13.90
2018-07-10T04:32:03.867Z,13.90
2018-07-10T04:34:33.635Z,13.80
2018-07-10T04:37:08.573Z,13.70
2018-07-10T04:42:27.288Z,13.60
2018-07-10T04:45:03.697Z,13.60
2018-07-10T04:47:39.158Z,13.60
2018-07-10T04:50:20.855Z,13.70
2018-07-10T04:52:53.976Z,13.70
2018-07-10T04:55:22.646Z,13.70
2018-07-10T04:57:58.262Z,13.70
2018-07-10T05:00:27.900Z,13.70
2018-07-10T05:02:57.969Z,13.70
2018-07-10T05:05:29.827Z,13.70
2018-07-10T05:07:59.114Z,13.60
2018-07-10T05:10:28.808Z,13.50
2018-07-10T05:12:57.451Z,13.50
2018-07-10T05:17:56.041Z,13.40
2018-07-10T05:20:25.995Z,13.40
2018-07-10T05:22:54.767Z,13.40
2018-07-10T05:25:23.411Z,13.30
2018-07-10T05:27:52.019Z,13.30
2018-07-10T05:30:21.386Z,13.30
2018-07-10T05:32:50.012Z,13.40
2018-07-10T05:37:47.431Z,13.40
2018-07-10T05:40:16.072Z,13.50
2018-07-10T05:42:46.964Z,13.50
2018-07-10T05:45:19.536Z,13.50
2018-07-10T05:47:51.670Z,13.50
2018-07-10T05:52:48.782Z,13.60
2018-07-10T05:55:21.463Z,13.60
2018-07-10T05:57:50.086Z,13.70
2018-07-10T06:00:18.663Z,13.70
2018-07-10T06:02:47.340Z,13.80
2018-07-10T06:05:15.912Z,13.80
2018-07-10T06:07:44.503Z,13.90
2018-07-10T06:10:13.114Z,14.00
2018-07-10T06:12:41.761Z,14.00
2018-07-10T06:15:10.340Z,14.10
2018-07-10T06:17:38.931Z,14.00
2018-07-10T06:20:07.560Z,14.10
2018-07-10T06:22:36.172Z,14.10
2018-07-10T06:25:06.759Z,14.20
2018-07-10T06:28:44.344Z,14.20
2018-07-10T06:31:16.528Z,14.20
2018-07-10T06:33:51.000Z,14.20
2018-07-10T06:36:23.155Z,14.20
2018-07-10T06:38:52.507Z,14.30
2018-07-10T06:41:21.071Z,14.30
2018-07-10T06:43:55.958Z,14.40
2018-07-10T06:46:31.895Z,14.40
2018-07-10T06:49:06.758Z,14.40
2018-07-10T06:54:04.603Z,14.60
2018-07-10T06:56:33.163Z,14.70
2018-07-10T06:59:01.940Z,14.80
2018-07-10T07:01:30.540Z,15.10
2018-07-10T07:04:01.313Z,15.40
2018-07-10T07:06:30.777Z,15.60
2018-07-10T07:08:59.416Z,15.70
2018-07-10T07:11:28.110Z,15.80
2018-07-10T07:13:57.108Z,16.20
2018-07-10T07:16:25.743Z,16.50
2018-07-10T07:18:54.302Z,16.40
2018-07-10T07:21:22.942Z,16.50
2018-07-10T07:23:51.693Z,16.40
2018-07-10T07:26:20.283Z,16.30
2018-07-10T07:28:48.841Z,16.40
2018-07-10T07:31:17.449Z,16.50
2018-07-10T07:33:46.000Z,16.60
2018-07-10T07:36:14.551Z,16.60
2018-07-10T07:38:43.059Z,16.80
2018-07-10T07:41:11.661Z,17.00
2018-07-10T07:43:40.316Z,17.20
2018-07-10T07:46:08.812Z,17.40
2018-07-10T07:48:37.459Z,17.50
2018-07-10T07:51:06.020Z,17.60
2018-07-10T07:53:34.638Z,17.60
2018-07-10T07:56:03.240Z,17.70
2018-07-10T07:58:31.929Z,17.80
2018-07-10T08:01:00.535Z,17.80
2018-07-10T08:03:29.112Z,17.80
2018-07-10T08:05:57.717Z,17.90
2018-07-10T08:08:26.396Z,17.90
2018-07-10T08:10:55.046Z,17.90
2018-07-10T08:13:23.697Z,18.10
2018-07-10T08:15:52.339Z,18.10
2018-07-10T08:18:21.259Z,18.00
2018-07-10T08:20:49.884Z,17.70
2018-07-10T08:23:18.486Z,17.60
2018-07-10T08:25:47.378Z,17.60
2018-07-10T08:30:45.170Z,17.60
2018-07-10T08:33:13.880Z,17.70
2018-07-10T08:35:44.847Z,17.90
2018-07-10T08:38:28.229Z,17.80
2018-07-10T08:40:56.853Z,17.80
2018-07-10T08:43:27.857Z,17.60
2018-07-10T08:46:03.874Z,17.50
2018-07-10T08:48:32.682Z,17.50
2018-07-10T08:51:01.614Z,17.50
2018-07-10T08:53:30.264Z,17.70
2018-07-10T08:58:28.421Z,18.10
2018-07-10T09:00:57.020Z,18.30
2018-07-10T09:03:25.584Z,18.40
2018-07-10T09:05:55.900Z,18.50
2018-07-10T09:08:24.649Z,18.70
2018-07-10T09:10:53.301Z,18.90
2018-07-10T09:13:22.002Z,18.80
2018-07-10T09:15:50.626Z,18.50
2018-07-10T09:18:19.185Z,18.60
2018-07-10T09:20:50.538Z,18.70
2018-07-10T09:23:20.288Z,18.70
2018-07-10T09:25:52.510Z,18.60
2018-07-10T09:28:35.634Z,18.60
2018-07-10T09:31:15.594Z,18.80
2018-07-10T09:33:52.691Z,18.80
2018-07-10T09:36:28.728Z,19.00
2018-07-10T09:39:05.655Z,19.30
2018-07-10T09:41:40.138Z,19.30
2018-07-10T09:44:15.848Z,19.00
2018-07-10T09:46:49.554Z,18.80
2018-07-10T09:49:22.065Z,18.70
2018-07-10T09:51:55.798Z,18.60
2018-07-10T09:54:40.312Z,18.70
2018-07-10T09:57:13.228Z,18.90
2018-07-10T09:59:46.824Z,19.20
2018-07-10T10:02:23.985Z,19.00
2018-07-10T10:04:59.283Z,18.90
2018-07-10T10:07:45.988Z,18.80
2018-07-10T10:10:19.422Z,18.70
2018-07-10T10:12:57.871Z,18.50
2018-07-10T10:15:35.707Z,18.10
2018-07-10T10:18:10.805Z,18.00
2018-07-10T10:20:46.855Z,18.10
2018-07-10T10:23:15.543Z,18.50
2018-07-10T10:25:50.491Z,19.00
2018-07-10T10:28:22.243Z,19.30
2018-07-10T10:30:50.981Z,19.50
2018-07-10T10:35:48.029Z,19.90
2018-07-10T10:38:17.431Z,19.80
2018-07-10T10:40:47.328Z,19.90
2018-07-10T10:43:15.935Z,20.10
2018-07-10T10:45:47.867Z,19.80
2018-07-10T10:48:17.910Z,19.80
2018-07-10T10:50:49.765Z,20.00
2018-07-10T10:53:19.002Z,20.20
2018-07-10T10:55:47.616Z,20.20
2018-07-10T10:58:16.196Z,19.90
2018-07-10T11:00:44.759Z,19.90
2018-07-10T11:03:13.356Z,19.70
2018-07-10T11:05:44.487Z,19.30
2018-07-10T11:08:13.428Z,19.20
2018-07-10T11:13:10.849Z,19.20
2018-07-10T11:15:45.208Z,19.20
2018-07-10T11:18:29.056Z,19.50
2018-07-10T11:24:04.678Z,19.80
2018-07-10T11:26:35.499Z,19.70
2018-07-10T11:29:05.221Z,19.90
2018-07-10T11:31:34.266Z,20.30
2018-07-10T11:36:31.072Z,20.90
2018-07-10T11:39:05.969Z,20.90
2018-07-10T11:44:06.971Z,20.50
2018-07-10T11:46:35.559Z,20.30
2018-07-10T11:49:04.196Z,20.30
2018-07-10T11:51:32.822Z,20.20
2018-07-10T11:54:01.396Z,19.90
2018-07-10T11:56:30.231Z,20.00
2018-07-10T11:58:58.926Z,20.00
2018-07-10T12:01:27.572Z,19.80
2018-07-10T12:03:56.507Z,19.60
2018-07-10T12:06:25.500Z,19.80
2018-07-10T12:08:56.555Z,20.30
2018-07-10T12:13:53.607Z,20.40
2018-07-10T12:16:22.190Z,20.40
2018-07-10T12:18:50.795Z,20.50
2018-07-10T12:21:20.691Z,20.40
2018-07-10T12:23:49.687Z,20.10
2018-07-10T12:26:18.226Z,19.80
2018-07-10T12:28:46.822Z,19.80
2018-07-10T12:31:15.826Z,19.80
2018-07-10T12:33:44.368Z,20.20
2018-07-10T12:36:12.941Z,20.80
2018-07-10T12:38:41.571Z,21.30
2018-07-10T12:41:10.171Z,21.30
2018-07-10T12:43:38.884Z,21.00
2018-07-10T12:46:07.535Z,20.70
2018-07-10T12:48:36.171Z,20.20
2018-07-10T12:51:04.758Z,20.10
2018-07-10T12:53:33.371Z,20.70
2018-07-10T12:56:02.172Z,21.30
2018-07-10T12:58:32.009Z,21.50
2018-07-10T13:01:00.757Z,21.40
2018-07-10T13:03:29.379Z,21.00
2018-07-10T13:05:58.598Z,20.70
2018-07-10T13:08:27.179Z,20.40
2018-07-10T13:13:24.093Z,20.90
2018-07-10T13:15:52.673Z,21.40
2018-07-10T13:18:23.119Z,21.80
2018-07-10T13:20:52.159Z,21.90
2018-07-10T13:25:49.016Z,22.60
2018-07-10T13:28:17.599Z,22.50
2018-07-10T13:33:15.016Z,21.40
2018-07-10T13:35:43.638Z,21.00
2018-07-10T13:38:13.001Z,20.60
2018-07-10T13:40:41.631Z,20.80
2018-07-10T13:43:10.297Z,21.20
2018-07-10T13:45:38.828Z,21.50
2018-07-10T13:48:07.411Z,22.10
2018-07-10T13:53:04.658Z,22.60
2018-07-10T13:55:33.555Z,22.20
2018-07-10T13:58:17.172Z,21.90
2018-07-10T14:00:57.094Z,21.50
2018-07-10T14:03:25.693Z,21.80
2018-07-10T14:05:54.301Z,22.40
2018-07-10T14:08:23.056Z,22.40
2018-07-10T14:10:51.638Z,22.10
2018-07-10T14:13:20.327Z,21.80
2018-07-10T14:15:48.903Z,21.80
2018-07-10T14:18:17.979Z,22.00
2018-07-10T14:20:49.375Z,22.10
2018-07-10T14:23:17.996Z,22.50
2018-07-10T14:25:47.341Z,22.90
2018-07-10T14:28:15.940Z,22.90
2018-07-10T14:30:44.576Z,22.30
2018-07-10T14:35:41.355Z,21.40
2018-07-10T14:38:11.247Z,20.90
2018-07-10T14:43:14.614Z,21.00
2018-07-10T14:45:43.252Z,21.60
2018-07-10T14:48:11.839Z,21.50
2018-07-10T14:53:08.629Z,22.10
2018-07-10T14:55:40.051Z,22.70
2018-07-10T14:58:08.660Z,23.10
2018-07-10T15:00:37.222Z,22.60
2018-07-10T15:03:05.833Z,22.10
2018-07-10T15:05:34.415Z,21.80
2018-07-10T15:08:03.044Z,22.30
2018-07-10T15:10:31.636Z,22.70
2018-07-10T15:13:00.162Z,22.50
2018-07-10T15:15:28.757Z,22.60
2018-07-10T15:18:02.517Z,22.80
2018-07-10T15:23:00.435Z,22.20
2018-07-10T15:25:29.007Z,21.60
2018-07-10T15:27:57.556Z,21.20
2018-07-10T15:30:26.128Z,21.10
2018-07-10T15:32:54.748Z,21.10
2018-07-10T15:35:23.319Z,21.10
2018-07-10T15:40:20.402Z,20.90
2018-07-10T15:42:49.035Z,20.60
2018-07-10T15:45:17.616Z,20.40
2018-07-10T15:47:46.150Z,20.20
2018-07-10T15:52:43.051Z,20.10
2018-07-10T15:55:11.639Z,20.10
2018-07-10T15:57:40.323Z,20.70
2018-07-10T16:00:08.990Z,21.00
2018-07-10T16:02:37.627Z,21.00
2018-07-10T16:05:07.049Z,20.90
2018-07-10T16:07:36.142Z,21.00
2018-07-10T16:10:04.686Z,21.70
2018-07-10T16:12:33.298Z,22.50
2018-07-10T16:15:01.912Z,22.90
2018-07-10T16:17:30.493Z,22.80
2018-07-10T16:20:09.425Z,22.60
2018-07-10T16:22:40.096Z,22.10
2018-07-10T16:25:15.561Z,21.70
2018-07-10T16:27:46.608Z,21.40
2018-07-10T16:30:20.360Z,21.30
2018-07-10T16:32:49.060Z,21.30
2018-07-10T16:35:18.595Z,21.10
2018-07-10T16:37:47.123Z,20.80
2018-07-10T16:40:15.774Z,20.60
2018-07-10T16:42:47.591Z,20.60
2018-07-10T16:45:21.285Z,20.60
2018-07-10T16:47:59.268Z,20.50
2018-07-10T16:50:30.027Z,20.40
2018-07-10T16:53:00.021Z,20.30
2018-07-10T16:55:29.233Z,20.20
2018-07-10T17:00:27.739Z,20.00
2018-07-10T17:02:57.090Z,19.90
2018-07-10T17:05:26.529Z,19.80
2018-07-10T17:07:57.274Z,19.80
2018-07-10T17:10:25.999Z,19.70
2018-07-10T17:12:57.294Z,19.60
2018-07-10T17:15:26.595Z,19.90
2018-07-10T17:17:55.185Z,20.70
2018-07-10T17:20:23.728Z,20.80
2018-07-10T17:22:52.423Z,20.70
2018-07-10T17:25:20.984Z,20.60
2018-07-10T17:27:50.908Z,20.30
2018-07-10T17:30:19.487Z,20.30
2018-07-10T17:32:48.117Z,20.60
2018-07-10T17:35:16.663Z,21.40
2018-07-10T17:37:47.947Z,21.40
2018-07-10T17:40:16.801Z,21.50
2018-07-10T17:42:46.163Z,21.90
2018-07-10T17:45:23.115Z,22.40
2018-07-10T17:47:51.916Z,23.10
2018-07-10T17:52:49.159Z,21.90
2018-07-10T17:55:17.922Z,21.30
2018-07-10T17:57:46.952Z,20.80
2018-07-10T18:00:15.568Z,20.40
2018-07-10T18:02:45.728Z,20.40
2018-07-10T18:05:17.829Z,20.40
2018-07-10T18:07:48.479Z,20.10
2018-07-10T18:10:17.705Z,19.80
2018-07-10T18:12:46.336Z,20.20
2018-07-10T18:15:14.964Z,20.90
2018-07-10T18:17:43.612Z,21.50
2018-07-10T18:20:12.261Z,21.80
2018-07-10T18:22:43.459Z,22.30
2018-07-10T18:25:12.137Z,22.60
2018-07-10T18:27:41.149Z,22.90
2018-07-10T18:30:09.801Z,23.10
2018-07-10T18:32:38.369Z,23.30
2018-07-10T18:35:06.940Z,23.50
2018-07-10T18:37:35.553Z,23.60
2018-07-10T18:40:04.113Z,23.50
2018-07-10T18:42:32.829Z,22.90
2018-07-10T18:45:01.676Z,22.00
2018-07-10T18:47:30.251Z,21.20
2018-07-10T18:49:58.856Z,20.50
2018-07-10T18:52:29.878Z,19.90
2018-07-10T18:55:00.236Z,19.50
2018-07-10T18:59:43.579Z,19.20
2018-07-10T19:02:17.154Z,19.00
2018-07-10T19:04:56.677Z,18.60
2018-07-10T19:07:25.268Z,18.50
2018-07-10T19:12:22.111Z,18.30
2018-07-10T19:14:50.717Z,18.20
2018-07-10T19:17:24.101Z,18.00
2018-07-10T19:19:54.071Z,17.90
2018-07-10T19:22:27.223Z,17.80
2018-07-10T19:24:56.209Z,17.70
2018-07-10T19:29:55.058Z,17.60
2018-07-10T19:32:23.681Z,17.50
2018-07-10T19:34:55.932Z,17.50
2018-07-10T19:37:26.660Z,17.40
2018-07-10T19:39:55.593Z,17.40
2018-07-10T19:42:24.237Z,17.40
2018-07-10T19:44:52.969Z,17.30
2018-07-10T19:47:22.350Z,17.20
2018-07-10T19:49:52.076Z,17.10
2018-07-10T19:52:21.503Z,17.00
2018-07-10T19:54:50.127Z,16.90
2018-07-10T19:57:27.527Z,16.80
2018-07-10T19:59:56.878Z,16.80
2018-07-10T20:02:25.596Z,16.80
2018-07-10T20:04:58.860Z,16.70
2018-07-10T20:07:34.697Z,16.60
2018-07-10T20:11:09.270Z,16.50
2018-07-10T20:13:44.448Z,16.50
2018-07-10T20:17:20.672Z,16.40
2018-07-10T20:19:54.415Z,16.30
2018-07-10T20:23:33.740Z,16.20
2018-07-10T20:26:10.889Z,16.10
2018-07-10T20:28:46.500Z,16.00
2018-07-10T20:31:26.931Z,15.90
2018-07-10T20:34:03.044Z,15.80
2018-07-10T20:36:32.190Z,15.80
2018-07-10T20:39:03.847Z,15.70
2018-07-10T20:41:41.782Z,15.70
2018-07-10T20:44:10.392Z,15.70
2018-07-10T20:46:44.092Z,15.60
2018-07-10T20:51:49.516Z,15.50
2018-07-10T20:54:30.608Z,15.40
2018-07-10T20:57:06.249Z,15.30
2018-07-10T20:59:42.823Z,15.20
2018-07-10T21:05:00.216Z,15.10
2018-07-10T21:07:30.876Z,15.10
2018-07-10T21:10:09.227Z,15.10
2018-07-10T21:14:07.686Z,15.10
2018-07-10T21:16:45.974Z,15.00
2018-07-10T21:21:30.069Z,14.90
2018-07-10T21:24:09.497Z,14.90
2018-07-10T21:26:42.494Z,14.70
2018-07-10T21:31:24.994Z,14.70
2018-07-10T21:34:02.432Z,14.60
2018-07-10T21:38:47.648Z,14.50
2018-07-10T21:41:55.053Z,14.40
2018-07-10T21:45:35.938Z,14.40
2018-07-10T21:48:11.046Z,14.30
2018-07-10T21:50:47.318Z,14.30
2018-07-10T21:53:16.265Z,14.30
2018-07-10T21:55:45.517Z,14.40
2018-07-10T22:00:55.443Z,14.30
2018-07-10T22:03:24.061Z,14.30
2018-07-10T22:05:54.298Z,14.30
2018-07-10T22:08:23.668Z,14.30
2018-07-10T22:10:52.243Z,14.30
2018-07-10T22:13:21.418Z,14.20
2018-07-10T22:15:50.693Z,14.20
2018-07-10T22:18:19.411Z,14.20
2018-07-10T22:20:49.603Z,14.10
2018-07-10T22:23:18.228Z,14.10
2018-07-10T22:25:46.796Z,14.20
2018-07-10T22:28:17.367Z,14.20
2018-07-10T22:30:51.981Z,14.20
2018-07-10T22:33:20.599Z,14.20
2018-07-10T22:35:49.268Z,14.20
2018-07-10T22:38:18.641Z,14.20
2018-07-10T22:40:48.058Z,14.20
2018-07-10T22:43:16.716Z,14.20
2018-07-10T22:45:46.295Z,14.10
2018-07-10T22:48:16.421Z,14.00
2018-07-10T22:50:46.203Z,13.90
2018-07-10T22:55:43.254Z,13.60
2018-07-10T22:58:11.847Z,13.50
2018-07-10T23:03:20.589Z,13.40
2018-07-10T23:05:50.104Z,13.30
2018-07-10T23:08:21.225Z,13.30
2018-07-10T23:10:50.347Z,13.20
2018-07-10T23:15:48.403Z,13.00
2018-07-10T23:18:17.539Z,13.00
2018-07-10T23:20:46.186Z,12.90
2018-07-10T23:23:14.760Z,12.90
2018-07-10T23:25:44.118Z,12.90
2018-07-10T23:28:12.695Z,12.90
2018-07-10T23:33:12.416Z,12.70
2018-07-10T23:35:42.093Z,12.70
2018-07-10T23:38:14.484Z,12.70
2018-07-10T23:40:44.544Z,12.60
2018-07-10T23:43:13.181Z,12.60
2018-07-10T23:45:41.749Z,12.60
2018-07-10T23:48:10.370Z,12.60
2018-07-10T23:50:39.309Z,12.50
2018-07-10T23:54:11.761Z,12.50
2018-07-10T23:59:08.627Z,12.30
